Time;durP1;ratioP1;P1;durP2;ratioP2;P2;SDS_P1;SDS_P2;PMS_P1;PMS_P2;Temp;Humidity;BMP_temperature;BMP_pressure;BME280_temperature;BME280_humidity;BME280_pressure;Samples;Min_cycle;Max_cycle;Signal;HPM_P1;HPM_P2
2024/01/03 00:00:21;;;;;;;4.97;1.13;;;7.30;99.90;;;;;;5105348;28;20047;-64
2024/01/03 00:02:49;;;;;;;1.58;0.55;;;7.30;99.90;;;;;;5102664;28;20048;-64
2024/01/03 00:05:32;;;;;;;4.10;0.75;;;7.30;99.90;;;;;;5085819;28;20491;-64
2024/01/03 00:07:59;;;;;;;5.45;0.95;;;7.30;99.90;;;;;;5084504;28;20051;-68
2024/01/03 00:10:46;;;;;;;3.38;0.73;;;7.30;99.90;;;;;;5085696;28;20518;-65
2024/01/03 00:13:29;;;;;;;3.67;0.68;;;7.20;99.90;;;;;;5070715;28;20044;-66
2024/01/03 00:16:07;;;;;;;4.03;0.80;;;7.20;99.90;;;;;;5084822;28;20384;-65
2024/01/03 00:18:39;;;;;;;6.72;1.10;;;7.20;99.90;;;;;;5085574;28;20052;-65
2024/01/03 00:21:09;;;;;;;3.65;0.77;;;7.10;99.90;;;;;;5088944;28;20067;-70
2024/01/03 00:23:43;;;;;;;8.48;0.82;;;7.10;99.90;;;;;;5095857;28;20062;-77
2024/01/03 00:26:13;;;;;;;4.18;1.00;;;7.00;99.90;;;;;;5081325;28;20048;-65
2024/01/03 00:28:41;;;;;;;3.92;0.50;;;6.80;99.90;;;;;;5074338;28;20032;-65
2024/01/03 00:31:11;;;;;;;6.88;0.68;;;6.80;99.90;;;;;;5084311;28;20048;-65
2024/01/03 00:33:41;;;;;;;4.78;0.55;;;6.70;99.90;;;;;;5085333;28;20162;-65
2024/01/03 00:36:15;;;;;;;4.38;0.57;;;6.60;99.90;;;;;;5085606;28;20593;-64
2024/01/03 00:38:44;;;;;;;3.10;0.50;;;6.60;99.90;;;;;;5084624;28;20484;-66
2024/01/03 00:41:12;;;;;;;1.08;0.40;;;6.50;99.90;;;;;;5084437;28;20052;-79
2024/01/03 00:43:42;;;;;;;;;;;6.50;99.90;;;;;;5084243;28;20032;-77
2024/01/03 00:46:10;;;;;;;4.88;0.70;;;6.40;99.90;;;;;;5084867;28;19924;-76
2024/01/03 00:48:40;;;;;;;1.70;0.60;;;6.40;99.90;;;;;;5084196;28;20048;-75
2024/01/03 00:51:08;;;;;;;3.58;0.57;;;6.30;99.90;;;;;;5091042;28;20086;-70
2024/01/03 00:53:36;;;;;;;5.55;0.70;;;6.30;99.90;;;;;;5097735;28;20063;-64
2024/01/03 00:56:04;;;;;;;9.02;1.00;;;6.20;99.90;;;;;;5085274;28;20067;-65
2024/01/03 00:58:33;;;;;;;2.05;0.60;;;6.20;99.90;;;;;;5077460;28;20052;-66
2024/01/03 01:01:01;;;;;;;3.88;0.95;;;6.10;99.90;;;;;;5087150;28;20055;-66
2024/01/03 01:03:28;;;;;;;6.50;2.28;;;6.00;99.90;;;;;;5090754;28;20052;-67
2024/01/03 01:05:56;;;;;;;5.88;1.05;;;5.90;99.90;;;;;;5081070;28;20051;-66
2024/01/03 01:08:24;;;;;;;8.55;1.05;;;5.90;99.90;;;;;;5074413;28;20070;-64
2024/01/03 01:10:52;;;;;;;11.18;1.55;;;5.80;99.90;;;;;;5088569;28;20055;-65
2024/01/03 01:13:19;;;;;;;7.97;1.08;;;5.80;99.90;;;;;;5075152;28;20048;-65
2024/01/03 01:15:47;;;;;;;9.50;1.10;;;5.80;99.90;;;;;;5069193;28;20048;-65
2024/01/03 01:18:15;;;;;;;5.50;1.00;;;5.70;99.90;;;;;;5085988;28;20043;-65
2024/01/03 01:20:43;;;;;;;9.60;1.08;;;5.70;99.90;;;;;;5087842;28;20056;-64
2024/01/03 01:23:11;;;;;;;7.00;1.27;;;5.70;99.90;;;;;;5088046;28;20044;-65
2024/01/03 01:25:39;;;;;;;5.63;0.88;;;5.60;99.90;;;;;;5082984;28;20044;-64
2024/01/03 01:28:07;;;;;;;4.75;1.00;;;5.60;99.90;;;;;;5085794;28;20048;-64
2024/01/03 01:30:35;;;;;;;2.40;1.00;;;5.60;99.90;;;;;;5086135;28;20411;-67
2024/01/03 01:33:04;;;;;;;7.32;1.15;;;5.50;99.90;;;;;;5085067;28;20380;-64
2024/01/03 01:35:32;;;;;;;11.63;1.48;;;5.50;99.90;;;;;;5084636;28;20083;-68
2024/01/03 01:38:03;;;;;;;7.90;1.20;;;5.40;99.90;;;;;;5087726;28;20052;-64
2024/01/03 01:40:30;;;;;;;5.72;1.23;;;5.30;99.90;;;;;;5088093;28;20494;-66
2024/01/03 01:42:58;;;;;;;8.00;1.10;;;5.30;99.90;;;;;;5080461;28;20055;-68
2024/01/03 01:45:28;;;;;;;4.25;1.13;;;5.20;99.90;;;;;;5088091;28;20138;-65
2024/01/03 01:47:56;;;;;;;5.40;0.65;;;5.20;99.90;;;;;;5087645;28;20051;-63
2024/01/03 01:50:25;;;;;;;3.70;1.00;;;5.10;99.90;;;;;;5086769;28;20040;-66
2024/01/03 01:52:53;;;;;;;5.88;1.13;;;5.00;99.90;;;;;;5104222;28;20055;-62
2024/01/03 01:55:21;;;;;;;15.45;1.50;;;5.00;99.90;;;;;;5089489;28;20659;-63
2024/01/03 01:57:51;;;;;;;9.82;2.00;;;5.00;99.90;;;;;;5085412;28;20063;-63
2024/01/03 02:00:19;;;;;;;12.25;1.20;;;5.00;99.90;;;;;;5086430;28;20051;-63
2024/01/03 02:02:48;;;;;;;14.95;3.67;;;5.10;99.90;;;;;;5086849;28;20040;-62
2024/01/03 02:05:17;;;;;;;6.20;1.35;;;5.20;99.90;;;;;;5086291;28;20060;-63
2024/01/03 02:07:45;;;;;;;12.98;1.27;;;5.30;99.90;;;;;;5086527;28;20048;-63
2024/01/03 02:10:13;;;;;;;8.63;1.33;;;5.40;99.90;;;;;;5083842;28;20047;-67
2024/01/03 02:12:40;;;;;;;12.77;1.42;;;5.50;99.90;;;;;;5078154;28;20127;-65
2024/01/03 02:15:08;;;;;;;13.55;1.63;;;5.60;99.90;;;;;;5085936;28;20041;-64
2024/01/03 02:17:38;;;;;;;14.32;2.55;;;5.70;99.90;;;;;;5086310;28;20588;-63
2024/01/03 02:20:06;;;;;;;14.88;1.95;;;5.70;99.90;;;;;;5087648;28;20051;-63
2024/01/03 02:22:34;;;;;;;9.75;1.38;;;5.80;99.90;;;;;;5095546;28;20353;-63
2024/01/03 02:25:04;;;;;;;13.07;1.52;;;5.90;99.90;;;;;;5101644;28;20063;-65
2024/01/03 02:27:32;;;;;;;;;;;5.90;99.90;;;;;;5092647;28;20068;-64
2024/01/03 02:29:59;;;;;;;8.57;1.20;;;6.00;99.90;;;;;;5086416;28;20264;-64
2024/01/03 02:32:27;;;;;;;14.88;1.90;;;6.00;99.90;;;;;;5079352;28;20044;-64
2024/01/03 02:34:55;;;;;;;9.43;1.85;;;6.10;99.90;;;;;;5087922;28;20423;-64
2024/01/03 02:37:24;;;;;;;17.15;2.10;;;6.20;99.90;;;;;;5092598;28;20048;-64
2024/01/03 02:39:51;;;;;;;8.82;0.90;;;6.20;99.90;;;;;;5105172;28;20043;-64
2024/01/03 02:42:19;;;;;;;10.18;1.45;;;6.20;99.90;;;;;;5088855;28;20049;-64
2024/01/03 02:44:46;;;;;;;9.73;2.03;;;6.30;99.90;;;;;;5073893;28;20070;-68
2024/01/03 02:47:14;;;;;;;12.48;2.17;;;6.30;99.90;;;;;;5090070;28;20399;-64
2024/01/03 02:49:42;;;;;;;12.48;2.03;;;6.40;99.90;;;;;;5094309;28;20048;-64
2024/01/03 02:52:09;;;;;;;14.05;2.03;;;6.40;99.90;;;;;;5106253;28;20054;-64
2024/01/03 02:54:37;;;;;;;15.15;1.50;;;6.40;99.90;;;;;;5113348;28;20395;-69
2024/01/03 02:57:04;;;;;;;15.85;1.58;;;6.50;99.90;;;;;;5114597;28;20483;-66
2024/01/03 02:59:33;;;;;;;10.75;1.20;;;6.50;99.90;;;;;;5113719;28;20520;-67
2024/01/03 03:02:01;;;;;;;16.77;2.67;;;6.50;99.90;;;;;;5110116;28;20047;-66
2024/01/03 03:04:28;;;;;;;13.80;1.60;;;6.50;99.90;;;;;;5093857;28;20371;-64
2024/01/03 03:06:56;;;;;;;10.43;1.23;;;6.50;99.90;;;;;;5080774;28;20494;-64
2024/01/03 03:09:24;;;;;;;10.60;1.60;;;6.60;99.90;;;;;;5073614;28;20387;-64
2024/01/03 03:11:51;;;;;;;14.25;1.75;;;6.60;99.90;;;;;;5073469;28;20053;-68
2024/01/03 03:14:20;;;;;;;20.40;3.10;;;6.50;99.90;;;;;;5089674;28;20048;-64
2024/01/03 03:16:48;;;;;;;11.43;1.80;;;6.50;99.90;;;;;;5093209;28;20060;-64
2024/01/03 03:19:15;;;;;;;17.85;1.80;;;6.50;99.90;;;;;;5092572;28;20048;-65
2024/01/03 03:21:46;;;;;;;16.88;1.73;;;6.50;99.90;;;;;;5088563;28;20052;-64
2024/01/03 03:24:13;;;;;;;16.30;1.40;;;6.40;99.90;;;;;;5092306;28;20044;-64
2024/01/03 03:26:41;;;;;;;19.17;1.83;;;6.40;99.90;;;;;;5093545;28;20044;-63
2024/01/03 03:29:09;;;;;;;10.35;2.15;;;6.30;99.90;;;;;;5093566;28;20070;-64
2024/01/03 03:31:36;;;;;;;14.95;1.45;;;6.30;99.90;;;;;;5093163;28;20040;-63
2024/01/03 03:34:04;;;;;;;15.35;2.22;;;6.30;99.90;;;;;;5093543;28;20387;-64
2024/01/03 03:36:32;;;;;;;14.40;1.40;;;6.30;99.90;;;;;;5093286;28;20044;-67
2024/01/03 03:38:59;;;;;;;7.85;0.93;;;6.20;99.90;;;;;;5093263;28;20475;-63
2024/01/03 03:41:27;;;;;;;12.93;2.30;;;6.20;99.90;;;;;;5093545;28;20055;-63
2024/01/03 03:43:55;;;;;;;15.60;2.20;;;6.20;99.90;;;;;;5093115;28;20040;-63
2024/01/03 03:46:23;;;;;;;11.38;1.25;;;6.20;99.90;;;;;;5092945;28;20051;-64
2024/01/03 03:48:50;;;;;;;9.80;1.13;;;6.20;99.90;;;;;;5092973;28;20048;-64
2024/01/03 03:51:18;;;;;;;16.23;2.55;;;6.20;99.90;;;;;;5097812;28;20055;-64
2024/01/03 03:53:46;;;;;;;18.80;1.50;;;6.20;99.90;;;;;;5104268;28;20051;-64
2024/01/03 03:56:32;;;;;;;22.17;1.95;;;6.20;99.90;;;;;;5092985;28;20651;-64
2024/01/03 03:58:59;;;;;;;14.02;1.50;;;6.20;99.90;;;;;;5093132;28;20047;-63
2024/01/03 04:01:27;;;;;;;12.18;1.23;;;6.20;99.90;;;;;;5091666;28;20040;-65
2024/01/03 04:03:54;;;;;;;15.90;1.60;;;6.30;99.90;;;;;;5092910;28;20055;-64
2024/01/03 04:06:22;;;;;;;13.90;2.72;;;6.30;99.90;;;;;;5093007;28;20051;-64
2024/01/03 04:08:50;;;;;;;17.73;1.30;;;6.30;99.90;;;;;;5091505;28;20043;-63
2024/01/03 04:11:18;;;;;;;11.30;2.22;;;6.30;99.90;;;;;;5091973;28;20044;-64
2024/01/03 04:13:45;;;;;;;20.10;1.73;;;6.30;99.90;;;;;;5092821;28;20557;-64
2024/01/03 04:16:13;;;;;;;16.17;1.58;;;6.30;99.90;;;;;;5092458;28;20048;-63
2024/01/03 04:18:41;;;;;;;21.38;2.58;;;6.40;99.90;;;;;;5092665;28;20040;-64
2024/01/03 04:21:09;;;;;;;17.17;2.28;;;6.40;99.90;;;;;;5095901;28;20047;-65
2024/01/03 04:23:37;;;;;;;17.38;2.70;;;6.40;99.90;;;;;;5111735;28;20039;-64
2024/01/03 04:26:05;;;;;;;21.02;3.55;;;6.40;99.90;;;;;;5112830;28;20047;-64
2024/01/03 04:28:33;;;;;;;12.50;2.10;;;6.40;99.90;;;;;;5112746;28;20051;-65
2024/01/03 04:31:00;;;;;;;19.08;2.75;;;6.40;99.90;;;;;;5094023;28;20036;-65
2024/01/03 04:33:28;;;;;;;17.33;1.80;;;6.40;99.90;;;;;;5092229;28;20052;-64
2024/01/03 04:35:56;;;;;;;23.35;2.97;;;6.30;99.90;;;;;;5092337;28;20399;-65
2024/01/03 04:38:24;;;;;;;13.90;1.90;;;6.30;99.90;;;;;;5091982;28;20044;-65
2024/01/03 04:40:51;;;;;;;11.10;1.48;;;6.30;99.90;;;;;;5092015;28;20055;-64
2024/01/03 04:43:19;;;;;;;15.40;2.22;;;6.30;99.90;;;;;;5090983;28;20464;-65
2024/01/03 04:45:47;;;;;;;17.77;2.28;;;6.30;99.90;;;;;;5092029;28;20048;-64
2024/01/03 04:48:22;;;;;;;15.98;1.80;;;6.20;99.90;;;;;;5090505;28;20510;-66
2024/01/03 04:50:50;;;;;;;18.15;1.70;;;6.20;99.90;;;;;;5091379;28;20044;-66
2024/01/03 04:53:18;;;;;;;16.20;2.10;;;6.20;99.90;;;;;;5112165;28;20505;-64
2024/01/03 04:55:46;;;;;;;19.40;1.63;;;6.10;99.90;;;;;;5112506;28;20402;-65
2024/01/03 04:58:13;;;;;;;15.48;2.00;;;6.20;99.90;;;;;;5104176;28;20050;-65
2024/01/03 05:00:41;;;;;;;13.85;1.80;;;6.20;99.90;;;;;;5078856;28;20036;-64
2024/01/03 05:03:08;;;;;;;22.73;2.65;;;6.20;99.90;;;;;;5071698;28;20052;-64
2024/01/03 05:05:36;;;;;;;15.65;1.52;;;6.20;99.90;;;;;;5090799;28;20055;-66
2024/01/03 05:08:04;;;;;;;12.40;2.80;;;6.20;99.90;;;;;;5087652;28;20044;-67
2024/01/03 05:10:32;;;;;;;20.50;1.80;;;6.20;99.90;;;;;;5091646;28;20051;-69
2024/01/03 05:13:00;;;;;;;11.60;1.33;;;6.20;99.90;;;;;;5091345;28;20051;-64
2024/01/03 05:15:27;;;;;;;15.57;1.95;;;6.30;99.90;;;;;;5091713;28;20502;-64
2024/01/03 05:17:55;;;;;;;21.35;2.03;;;6.30;99.90;;;;;;5091714;28;20051;-65
2024/01/03 05:20:23;;;;;;;13.38;1.73;;;6.30;99.90;;;;;;5088147;28;20051;-64
2024/01/03 05:22:50;;;;;;;19.20;1.95;;;6.30;99.90;;;;;;5109068;28;20039;-64
2024/01/03 05:25:18;;;;;;;19.95;3.25;;;6.30;99.90;;;;;;5096895;28;20652;-64
2024/01/03 05:27:46;;;;;;;18.38;2.67;;;6.30;99.90;;;;;;5073242;28;20052;-65
2024/01/03 05:30:14;;;;;;;27.17;2.10;;;6.40;99.90;;;;;;5088150;28;20044;-64
2024/01/03 05:32:42;;;;;;;14.68;1.30;;;6.40;99.90;;;;;;5090277;28;20499;-69
2024/01/03 05:35:09;;;;;;;14.85;2.00;;;6.50;99.90;;;;;;5090300;28;20052;-64
2024/01/03 05:37:37;;;;;;;13.88;1.00;;;6.50;99.90;;;;;;5091546;28;20044;-64
2024/01/03 05:40:05;;;;;;;20.90;1.67;;;6.50;99.90;;;;;;5091112;28;20051;-66
2024/01/03 05:42:33;;;;;;;13.50;1.65;;;6.50;99.90;;;;;;5091541;28;20055;-65
2024/01/03 05:45:01;;;;;;;19.73;2.20;;;6.50;99.90;;;;;;5091352;28;20040;-68
2024/01/03 05:47:29;;;;;;;16.88;2.30;;;6.50;99.90;;;;;;5082541;28;20044;-63
2024/01/03 05:49:58;;;;;;;10.52;2.40;;;6.50;99.90;;;;;;5067990;28;20060;-64
2024/01/03 05:52:25;;;;;;;13.90;2.58;;;6.50;99.90;;;;;;5100802;28;20040;-65
2024/01/03 05:54:54;;;;;;;13.40;2.22;;;6.50;99.90;;;;;;5097742;28;20491;-63
2024/01/03 05:57:22;;;;;;;10.93;2.38;;;6.50;99.90;;;;;;5087621;28;20051;-64
2024/01/03 05:59:50;;;;;;;9.13;1.42;;;6.50;99.90;;;;;;5087810;28;20059;-65
2024/01/03 06:02:18;;;;;;;13.52;2.50;;;6.50;99.90;;;;;;5075976;28;20052;-74
2024/01/03 06:04:47;;;;;;;19.00;2.15;;;6.50;99.90;;;;;;5063101;28;20044;-73
2024/01/03 06:07:15;;;;;;;15.02;2.10;;;6.60;99.90;;;;;;5064050;28;20056;-65
2024/01/03 06:09:45;;;;;;;18.80;2.10;;;6.60;99.90;;;;;;5086437;28;20048;-65
2024/01/03 06:12:12;;;;;;;18.70;2.47;;;6.60;99.90;;;;;;5089767;28;20055;-70
2024/01/03 06:14:42;;;;;;;20.25;2.75;;;6.60;99.90;;;;;;5092365;28;20051;-67
2024/01/03 06:17:10;;;;;;;13.60;2.20;;;6.60;99.90;;;;;;5110026;28;20678;-69
2024/01/03 06:19:37;;;;;;;10.50;2.45;;;6.60;99.90;;;;;;5071035;28;20554;-75
2024/01/03 06:22:05;;;;;;;35.90;5.65;;;6.60;99.90;;;;;;5088128;28;20044;-74
2024/01/03 06:24:32;;;;;;;20.83;4.40;;;6.60;99.90;;;;;;5096592;28;20751;-75
2024/01/03 06:27:00;;;;;;;14.90;2.38;;;6.60;99.90;;;;;;5089770;28;20052;-72
2024/01/03 06:29:28;;;;;;;10.48;2.20;;;6.60;99.90;;;;;;5091079;28;20055;-69
2024/01/03 06:31:56;;;;;;;13.30;1.88;;;6.60;99.90;;;;;;5088607;28;20040;-76
2024/01/03 06:34:23;;;;;;;8.55;2.97;;;6.60;99.90;;;;;;5102301;28;20050;-65
2024/01/03 06:36:51;;;;;;;12.45;2.70;;;6.60;99.90;;;;;;5108272;28;20047;-64
2024/01/03 06:39:19;;;;;;;11.63;2.85;;;6.60;99.90;;;;;;5087708;28;20476;-65
2024/01/03 06:41:46;;;;;;;11.60;2.25;;;6.60;99.90;;;;;;5089479;28;20055;-66
2024/01/03 06:44:14;;;;;;;17.02;2.80;;;6.60;99.90;;;;;;5089526;28;20040;-63
2024/01/03 06:46:42;;;;;;;10.02;3.28;;;6.60;99.90;;;;;;5091133;28;20044;-65
2024/01/03 06:49:12;;;;;;;11.13;2.70;;;6.60;99.90;;;;;;5075799;28;20368;-63
2024/01/03 06:51:40;;;;;;;11.13;2.60;;;6.60;99.90;;;;;;5084034;28;20059;-64
2024/01/03 06:54:07;;;;;;;15.57;2.55;;;6.60;99.90;;;;;;5087999;28;20636;-65
2024/01/03 06:56:35;;;;;;;11.05;2.30;;;6.60;99.90;;;;;;5087493;28;20048;-63
2024/01/03 06:59:03;;;;;;;8.35;2.05;;;6.70;99.90;;;;;;5089472;28;20047;-64
2024/01/03 07:01:31;;;;;;;16.08;2.58;;;6.70;99.90;;;;;;5088487;28;20052;-67
2024/01/03 07:04:00;;;;;;;8.70;2.25;;;6.70;99.90;;;;;;5084561;28;20043;-72
2024/01/03 07:06:28;;;;;;;7.80;2.05;;;6.70;99.90;;;;;;5088701;28;20044;-75
2024/01/03 07:08:56;;;;;;;17.27;2.17;;;6.70;99.90;;;;;;5088841;28;20048;-72
2024/01/03 07:11:24;;;;;;;11.70;2.20;;;6.60;99.90;;;;;;5090747;28;20059;-76
2024/01/03 07:13:51;;;;;;;8.63;2.22;;;6.60;99.90;;;;;;5082689;28;20048;-69
2024/01/03 07:16:19;;;;;;;11.48;1.90;;;6.60;99.90;;;;;;5068837;28;20041;-75
2024/01/03 07:18:46;;;;;;;13.55;2.38;;;6.60;99.90;;;;;;5075321;28;20078;-63
2024/01/03 07:21:15;;;;;;;12.90;2.00;;;6.60;99.90;;;;;;5075207;28;20380;-64
2024/01/03 07:23:42;;;;;;;7.93;2.67;;;6.60;99.90;;;;;;5089777;28;20603;-63
2024/01/03 07:26:10;;;;;;;13.27;2.10;;;6.70;99.90;;;;;;5088479;28;20040;-64
2024/01/03 07:28:37;;;;;;;9.15;2.00;;;6.60;99.90;;;;;;5088679;28;20836;-63
2024/01/03 07:31:05;;;;;;;14.98;1.98;;;6.60;99.90;;;;;;5087887;28;20418;-65
2024/01/03 07:33:33;;;;;;;13.60;2.28;;;6.70;99.90;;;;;;5081240;28;20052;-72
2024/01/03 07:36:01;;;;;;;11.23;2.10;;;6.60;99.90;;;;;;5065820;28;20048;-71
2024/01/03 07:38:28;;;;;;;6.10;1.83;;;6.60;99.90;;;;;;5080893;28;20052;-73
2024/01/03 07:40:56;;;;;;;11.90;2.55;;;6.60;99.90;;;;;;5073280;28;20052;-73
2024/01/03 07:43:24;;;;;;;12.88;2.80;;;6.70;99.90;;;;;;5081957;28;20063;-74
2024/01/03 07:45:51;;;;;;;9.23;2.03;;;6.60;99.90;;;;;;5085600;28;20487;-71
2024/01/03 07:48:19;;;;;;;10.65;2.20;;;6.70;99.90;;;;;;5086335;28;20503;-68
2024/01/03 07:50:47;;;;;;;11.80;2.10;;;6.60;99.90;;;;;;5070084;28;20057;-75
2024/01/03 07:53:15;;;;;;;11.27;2.45;;;6.60;99.90;;;;;;5098434;28;20055;-71
2024/01/03 07:55:42;;;;;;;12.75;3.15;;;6.70;99.90;;;;;;5089524;28;20487;-70
2024/01/03 07:58:10;;;;;;;8.13;2.60;;;6.70;99.90;;;;;;5085828;28;20051;-73
2024/01/03 08:00:38;;;;;;;17.80;2.70;;;6.70;99.90;;;;;;5088951;28;20098;-74
2024/01/03 08:03:05;;;;;;;12.43;3.42;;;6.70;99.90;;;;;;5090359;28;20044;-76
2024/01/03 08:05:33;;;;;;;12.32;3.08;;;6.70;99.90;;;;;;5064898;28;20523;-75
2024/01/03 08:08:01;;;;;;;15.95;3.47;;;6.70;99.90;;;;;;5074596;28;20056;-74
2024/01/03 08:10:28;;;;;;;14.85;3.40;;;6.80;99.90;;;;;;5088057;28;20043;-75
2024/01/03 08:12:56;;;;;;;10.20;2.75;;;6.70;99.90;;;;;;5088840;28;20040;-71
2024/01/03 08:15:24;;;;;;;13.68;3.00;;;6.80;99.90;;;;;;5089326;28;20047;-74
2024/01/03 08:17:51;;;;;;;16.73;3.25;;;6.80;99.90;;;;;;5089172;28;20048;-74
2024/01/03 08:20:19;;;;;;;22.30;3.40;;;6.80;99.90;;;;;;5071025;28;20068;-64
2024/01/03 08:22:47;;;;;;;12.32;4.00;;;6.80;99.90;;;;;;5096261;28;20036;-67
2024/01/03 08:25:15;;;;;;;14.18;2.78;;;6.80;99.90;;;;;;5088882;28;20051;-64
2024/01/03 08:27:43;;;;;;;9.50;3.15;;;6.80;99.90;;;;;;5088926;28;20052;-67
2024/01/03 08:30:10;;;;;;;17.25;3.33;;;6.80;99.90;;;;;;5089096;28;20051;-65
2024/01/03 08:32:40;;;;;;;14.63;3.15;;;6.90;99.90;;;;;;5089067;28;20494;-65
2024/01/03 08:35:09;;;;;;;7.40;2.38;;;6.80;99.90;;;;;;5077282;28;20055;-76
2024/01/03 08:37:36;;;;;;;13.68;2.72;;;6.80;99.90;;;;;;5072452;28;20048;-75
2024/01/03 08:40:05;;;;;;;8.93;2.92;;;6.90;99.90;;;;;;5088437;28;20048;-75
2024/01/03 08:42:33;;;;;;;13.47;3.00;;;6.90;99.90;;;;;;5088686;28;20071;-74
2024/01/03 08:45:01;;;;;;;16.27;2.60;;;6.90;99.90;;;;;;5068442;28;20040;-74
2024/01/03 08:47:29;;;;;;;16.23;2.70;;;6.90;99.90;;;;;;5071629;28;20582;-75
2024/01/03 08:49:59;;;;;;;13.02;3.10;;;6.90;99.90;;;;;;5086983;28;20043;-63
2024/01/03 08:52:27;;;;;;;10.43;2.50;;;6.90;99.90;;;;;;5097502;28;20040;-65
2024/01/03 08:54:55;;;;;;;12.23;2.63;;;6.90;99.90;;;;;;5086816;28;20044;-64
2024/01/03 08:57:22;;;;;;;11.65;2.10;;;7.00;99.90;;;;;;5088552;28;20047;-64
2024/01/03 08:59:50;;;;;;;9.00;2.15;;;7.00;99.90;;;;;;5088477;28;20071;-64
2024/01/03 09:02:18;;;;;;;9.93;2.30;;;7.00;99.90;;;;;;5085494;28;20085;-63
2024/01/03 09:04:46;;;;;;;7.15;2.03;;;7.00;99.90;;;;;;5074766;28;20052;-74
2024/01/03 09:07:14;;;;;;;13.10;2.60;;;7.00;99.90;;;;;;5067962;28;20044;-68
2024/01/03 09:09:41;;;;;;;6.60;2.28;;;7.00;99.90;;;;;;5087757;28;20047;-77
2024/01/03 09:12:09;;;;;;;10.13;2.63;;;7.10;99.90;;;;;;5083310;28;20064;-67
2024/01/03 09:14:37;;;;;;;5.93;2.10;;;7.10;99.90;;;;;;5088435;28;20048;-70
2024/01/03 09:17:04;;;;;;;3.00;1.55;;;7.10;99.90;;;;;;5088276;28;20442;-75
2024/01/03 09:19:32;;;;;;;8.55;1.92;;;7.10;99.90;;;;;;5081171;28;20049;-65
2024/01/03 09:22:01;;;;;;;8.50;1.58;;;7.10;99.90;;;;;;5087515;28;20498;-65
2024/01/03 09:24:29;;;;;;;13.32;2.08;;;7.10;99.90;;;;;;5087934;28;20060;-65
2024/01/03 09:26:57;;;;;;;6.30;1.88;;;7.10;99.90;;;;;;5088262;28;20332;-65
2024/01/03 09:29:25;;;;;;;4.57;1.80;;;7.10;99.90;;;;;;5088137;28;20052;-68
2024/01/03 09:31:53;;;;;;;6.95;2.10;;;7.10;99.90;;;;;;5084509;28;20047;-65
2024/01/03 09:34:20;;;;;;;5.93;1.83;;;7.20;99.90;;;;;;5068847;28;20051;-74
2024/01/03 09:36:48;;;;;;;10.82;3.38;;;7.10;99.90;;;;;;5088132;28;20041;-73
2024/01/03 09:39:16;;;;;;;8.57;2.67;;;7.10;99.90;;;;;;5087550;28;20430;-67
2024/01/03 09:41:45;;;;;;;10.32;2.22;;;7.10;99.90;;;;;;5088172;28;20498;-70
2024/01/03 09:44:13;;;;;;;8.38;2.33;;;7.10;99.90;;;;;;5101232;28;20036;-72
2024/01/03 09:46:42;;;;;;;10.95;2.80;;;7.10;99.90;;;;;;5110499;28;20402;-64
2024/01/03 09:49:10;;;;;;;8.03;2.30;;;7.10;99.90;;;;;;5094186;28;20040;-66
2024/01/03 09:51:40;;;;;;;7.20;2.85;;;7.10;99.90;;;;;;5089314;28;20051;-74
2024/01/03 09:54:08;;;;;;;8.18;2.78;;;7.00;99.90;;;;;;5092442;28;20044;-71
2024/01/03 09:56:38;;;;;;;12.13;3.13;;;7.00;99.90;;;;;;5091892;28;20070;-73
2024/01/03 09:59:08;;;;;;;5.30;2.90;;;7.00;99.90;;;;;;5089543;28;20047;-73
2024/01/03 10:01:37;;;;;;;6.30;2.63;;;7.00;99.90;;;;;;5088829;28;20059;-73
2024/01/03 10:04:06;;;;;;;7.00;2.35;;;7.00;99.90;;;;;;5090591;28;20506;-73
2024/01/03 10:06:51;;;;;;;8.88;2.90;;;7.10;99.90;;;;;;5068396;28;20511;-66
2024/01/03 10:09:20;;;;;;;9.57;2.80;;;7.00;99.90;;;;;;5088324;28;20047;-74
2024/01/03 10:11:51;;;;;;;5.13;2.53;;;7.10;99.90;;;;;;5091548;28;20051;-73
2024/01/03 10:14:21;;;;;;;11.65;3.22;;;7.10;99.90;;;;;;5088449;28;20063;-68
2024/01/03 10:16:49;;;;;;;13.25;2.75;;;7.10;99.90;;;;;;5092070;28;20384;-72
2024/01/03 10:19:19;;;;;;;9.38;2.30;;;7.10;99.90;;;;;;5090378;28;20067;-72
2024/01/03 10:21:53;;;;;;;7.65;2.25;;;7.10;99.90;;;;;;5088363;28;20047;-64
2024/01/03 10:24:26;;;;;;;9.15;2.50;;;7.20;99.90;;;;;;5088481;28;20448;-63
2024/01/03 10:26:55;;;;;;;14.40;2.72;;;7.20;99.90;;;;;;5089705;28;20044;-63
2024/01/03 10:29:23;;;;;;;7.85;1.90;;;7.20;99.90;;;;;;5088141;28;20350;-64
2024/01/03 10:31:51;;;;;;;9.88;1.85;;;7.30;99.90;;;;;;5087069;28;20048;-64
2024/01/03 10:34:23;;;;;;;9.63;1.65;;;7.30;99.90;;;;;;5088087;28;20048;-63
2024/01/03 10:36:54;;;;;;;5.57;1.52;;;7.30;99.90;;;;;;5050898;28;20052;-73
2024/01/03 10:39:22;;;;;;;6.22;1.10;;;7.40;99.90;;;;;;5107350;28;20050;-72
2024/01/03 10:41:52;;;;;;;8.90;1.73;;;7.40;99.90;;;;;;5111715;28;20475;-74
2024/01/03 10:44:21;;;;;;;;;;;7.40;99.90;;;;;;5088764;28;20048;-74
2024/01/03 10:46:54;;;;;;;9.37;2.30;;;7.40;99.90;;;;;;5090092;28;19930;-69
2024/01/03 10:49:23;;;;;;;5.57;1.40;;;7.50;99.90;;;;;;5086754;28;20036;-68
2024/01/03 10:52:02;;;;;;;5.80;1.30;;;7.50;99.90;;;;;;5095936;28;20062;-63
2024/01/03 10:54:40;;;;;;;4.82;2.03;;;7.50;99.90;;;;;;5099036;28;20067;-61
2024/01/03 10:57:11;;;;;;;8.38;1.60;;;7.50;99.90;;;;;;5090061;28;20067;-61
2024/01/03 10:59:55;;;;;;;8.00;1.98;;;7.50;99.90;;;;;;5070673;28;20041;-61
2024/01/03 11:02:35;;;;;;;11.73;2.28;;;7.50;99.90;;;;;;5084396;28;20868;-61
2024/01/03 11:05:15;;;;;;;9.45;1.63;;;7.50;99.90;;;;;;5082735;28;20049;-64
2024/01/03 11:07:58;;;;;;;6.95;1.52;;;7.50;99.90;;;;;;5076533;28;20044;-63
2024/01/03 11:10:53;;;;;;;8.35;2.10;;;7.50;99.90;;;;;;5090288;28;20044;-64
2024/01/03 11:13:29;;;;;;;5.43;2.50;;;7.50;99.90;;;;;;5099381;28;20047;-63
2024/01/03 11:15:58;;;;;;;7.07;3.03;;;7.50;99.90;;;;;;5111012;28;20055;-64
2024/01/03 11:18:41;;;;;;;10.57;3.42;;;7.40;99.90;;;;;;5100370;28;20047;-66
2024/01/03 11:21:26;;;;;;;4.68;1.92;;;7.50;99.90;;;;;;5092468;28;20502;-64
2024/01/03 11:23:54;;;;;;;6.28;2.70;;;7.50;99.90;;;;;;5091643;28;20640;-65
2024/01/03 11:26:53;;;;;;;3.70;2.40;;;7.40;99.90;;;;;;5086728;28;20059;-63
2024/01/03 11:29:41;;;;;;;6.25;1.90;;;7.40;99.90;;;;;;5089771;28;20052;-67
2024/01/03 11:32:31;;;;;;;3.70;1.83;;;7.40;99.90;;;;;;5090467;28;20052;-72
2024/01/03 11:35:08;;;;;;;3.75;1.92;;;7.40;99.90;;;;;;5087133;28;20056;-67
2024/01/03 11:37:38;;;;;;;5.40;2.28;;;7.40;99.90;;;;;;5089529;28;20056;-75
2024/01/03 11:40:08;;;;;;;6.57;3.03;;;7.40;99.90;;;;;;5089727;28;20066;-74
2024/01/03 11:42:41;;;;;;;4.82;2.50;;;7.40;99.90;;;;;;5093458;28;20399;-73
2024/01/03 11:45:17;;;;;;;5.63;2.53;;;7.40;99.90;;;;;;5088826;28;20075;-72
2024/01/03 11:47:46;;;;;;;6.88;2.65;;;7.40;99.90;;;;;;5089738;28;20399;-72
2024/01/03 11:50:16;;;;;;;5.85;2.20;;;7.40;99.90;;;;;;5086262;28;20044;-71
2024/01/03 11:52:47;;;;;;;4.78;2.30;;;7.40;99.90;;;;;;5088572;28;20043;-74
2024/01/03 11:55:17;;;;;;;6.68;2.33;;;7.40;99.90;;;;;;5095982;28;20276;-72
2024/01/03 11:57:47;;;;;;;4.13;2.00;;;7.40;99.90;;;;;;5089751;28;20040;-74
2024/01/03 12:00:24;;;;;;;3.50;2.08;;;7.50;99.90;;;;;;5088211;28;20409;-68
2024/01/03 12:02:56;;;;;;;6.35;2.53;;;7.40;99.90;;;;;;5089265;28;20048;-65
2024/01/03 12:05:26;;;;;;;5.85;2.80;;;7.40;99.90;;;;;;5086319;28;20053;-67
2024/01/03 12:07:56;;;;;;;5.85;3.17;;;7.40;99.90;;;;;;5073623;28;20391;-66
2024/01/03 12:10:25;;;;;;;5.18;2.55;;;7.40;99.90;;;;;;5089020;28;20048;-64
2024/01/03 12:12:53;;;;;;;3.20;2.10;;;7.40;99.90;;;;;;5087628;28;20597;-67
2024/01/03 12:15:25;;;;;;;4.40;2.30;;;7.40;99.90;;;;;;5089268;28;20048;-63
2024/01/03 12:18:06;;;;;;;4.90;2.42;;;7.40;99.90;;;;;;5087783;28;20044;-66
2024/01/03 12:20:34;;;;;;;5.57;2.40;;;7.40;99.90;;;;;;5082370;28;20047;-64
2024/01/03 12:23:09;;;;;;;4.97;1.50;;;7.40;99.90;;;;;;5095500;28;20065;-64
2024/01/03 12:25:39;;;;;;;4.78;2.28;;;7.40;99.90;;;;;;5089045;28;20044;-64
2024/01/03 12:28:08;;;;;;;4.97;1.58;;;7.40;99.90;;;;;;5088876;28;20063;-63
2024/01/03 12:30:35;;;;;;;2.30;1.80;;;7.40;99.90;;;;;;5089032;28;20048;-67
2024/01/03 12:33:11;;;;;;;3.78;2.08;;;7.40;99.90;;;;;;5092058;28;20047;-64
2024/01/03 12:35:40;;;;;;;3.03;2.15;;;7.40;99.90;;;;;;5101289;28;20063;-70
2024/01/03 12:38:08;;;;;;;6.40;2.55;;;7.50;99.90;;;;;;5076074;28;20047;-67
2024/01/03 12:40:36;;;;;;;3.00;2.03;;;7.50;99.90;;;;;;5085148;28;20032;-64
2024/01/03 12:43:03;;;;;;;1.70;1.10;;;7.50;99.90;;;;;;5083917;28;20044;-66
2024/01/03 12:45:31;;;;;;;5.22;2.10;;;7.50;99.90;;;;;;5087794;28;20058;-73
2024/01/03 12:47:59;;;;;;;4.28;1.35;;;7.50;99.90;;;;;;5094995;28;20040;-69
2024/01/03 12:50:27;;;;;;;5.97;1.85;;;7.50;99.90;;;;;;5107167;28;20047;-65
2024/01/03 12:52:55;;;;;;;3.72;1.67;;;7.50;99.90;;;;;;5098977;28;20051;-74
2024/01/03 12:55:23;;;;;;;5.35;1.92;;;7.50;99.90;;;;;;5098977;28;20056;-74
2024/01/03 12:57:50;;;;;;;5.13;3.00;;;7.50;99.90;;;;;;5086781;28;20051;-66
2024/01/03 13:00:18;;;;;;;3.67;1.90;;;7.50;99.90;;;;;;5085169;28;20044;-76
2024/01/03 13:02:46;;;;;;;7.10;2.13;;;7.50;99.90;;;;;;5092210;28;20494;-74